createdAt,value
2023-02-16T00:53:46.579Z,-2.80
2023-02-16T01:05:40.018Z,-2.80
2023-02-16T01:11:24.291Z,-2.80
2023-02-16T01:18:16.670Z,-2.90
2023-02-16T02:48:41.830Z,-2.30
2023-02-16T02:53:25.754Z,-1.60
2023-02-16T02:58:32.185Z,-0.70
2023-02-16T03:03:23.596Z,0.00
2023-02-16T03:08:22.419Z,0.50
2023-02-16T03:13:23.247Z,1.00
2023-02-16T03:18:27.833Z,1.20
2023-02-16T03:23:37.874Z,1.40
2023-02-16T03:28:41.436Z,1.00
2023-02-16T03:33:26.109Z,0.50
2023-02-16T03:38:14.084Z,0.00
2023-02-16T03:43:05.708Z,-0.30
2023-02-16T03:47:49.139Z,-0.60
2023-02-16T03:52:37.546Z,-0.70
2023-02-16T03:57:30.009Z,-0.20
2023-02-16T04:02:13.443Z,0.80
2023-02-16T04:07:03.370Z,1.80
2023-02-16T04:12:06.153Z,2.20
2023-02-16T04:16:55.674Z,1.90
2023-02-16T04:21:42.996Z,1.10
2023-02-16T04:26:32.674Z,0.50
2023-02-16T04:31:19.320Z,-0.20
2023-02-16T04:36:05.592Z,-0.50
2023-02-16T04:40:54.876Z,-0.70
2023-02-16T04:45:41.828Z,-0.50
2023-02-16T04:50:31.871Z,-0.30
2023-02-16T04:55:16.680Z,-0.10
2023-02-16T05:00:06.618Z,0.50
2023-02-16T05:04:56.096Z,0.80
2023-02-16T05:09:41.289Z,1.20
2023-02-16T05:14:45.179Z,1.20
2023-02-16T05:19:30.273Z,1.20
2023-02-16T05:24:21.152Z,1.30
2023-02-16T05:29:09.954Z,1.30
2023-02-16T05:34:02.065Z,1.20
2023-02-16T05:38:45.634Z,1.20
2023-02-16T05:43:32.613Z,1.20
2023-02-16T05:48:25.167Z,1.00
2023-02-16T05:53:09.992Z,1.40
2023-02-16T05:57:58.227Z,1.90
2023-02-16T06:02:47.600Z,2.20
2023-02-16T06:07:32.889Z,2.40
2023-02-16T06:12:21.338Z,2.40
2023-02-16T06:17:08.221Z,2.30
2023-02-16T06:21:56.785Z,2.10
2023-02-16T06:26:49.156Z,1.90
2023-02-16T06:31:36.384Z,1.80
2023-02-16T06:36:23.047Z,1.80
2023-02-16T06:41:09.982Z,1.90
2023-02-16T06:45:57.797Z,2.00
2023-02-16T06:50:50.626Z,2.30
2023-02-16T06:55:36.699Z,2.40
2023-02-16T07:00:23.528Z,2.50
2023-02-16T07:05:09.389Z,2.60
2023-02-16T07:10:03.827Z,2.50
2023-02-16T07:14:47.424Z,2.40
2023-02-16T07:19:35.415Z,2.50
2023-02-16T07:24:24.743Z,2.60
2023-02-16T07:29:12.693Z,2.60
2023-02-16T07:33:58.051Z,2.60
2023-02-16T07:38:47.465Z,2.60
2023-02-16T07:43:37.391Z,2.50
2023-02-16T07:48:22.373Z,2.50
2023-02-16T07:53:15.157Z,2.90
2023-02-16T07:57:58.953Z,3.30
2023-02-16T08:02:45.580Z,3.70
2023-02-16T08:07:38.523Z,4.10
2023-02-16T08:12:23.075Z,4.40
2023-02-16T08:17:09.343Z,4.10
2023-02-16T08:22:00.975Z,3.70
2023-02-16T08:26:49.844Z,3.50
2023-02-16T08:31:38.382Z,3.60
2023-02-16T08:36:23.723Z,3.60
2023-02-16T08:41:07.152Z,4.00
2023-02-16T08:51:38.214Z,5.80
2023-02-16T08:56:50.228Z,6.70
2023-02-16T09:01:47.476Z,7.10
2023-02-16T09:07:05.390Z,7.80
2023-02-16T09:12:04.743Z,8.20
2023-02-16T09:22:00.105Z,9.30
2023-02-16T09:26:48.136Z,9.10
2023-02-16T09:37:00.235Z,9.50
2023-02-16T09:42:33.632Z,10.00
2023-02-16T09:53:15.850Z,10.30
2023-02-16T10:05:13.160Z,10.20
2023-02-16T10:20:41.564Z,10.10
2023-02-16T10:31:24.697Z,10.10
2023-02-16T10:37:16.836Z,10.00
2023-02-16T10:49:12.408Z,10.30
2023-02-16T10:55:07.193Z,10.20
2023-02-16T11:00:24.772Z,10.10
2023-02-16T11:05:56.436Z,10.20
2023-02-16T11:17:47.136Z,10.40
2023-02-16T11:23:55.936Z,10.60
2023-02-16T11:34:48.941Z,10.40
2023-02-16T11:40:06.771Z,10.50
2023-02-16T11:46:16.906Z,10.60
2023-02-16T11:51:20.446Z,10.80
2023-02-16T12:02:33.526Z,10.80
2023-02-16T12:08:03.977Z,10.80
2023-02-16T12:14:36.382Z,11.00
2023-02-16T12:19:39.097Z,11.00
2023-02-16T12:25:44.202Z,11.10
2023-02-16T12:31:21.791Z,11.30
2023-02-16T12:36:42.184Z,11.30
2023-02-16T12:41:45.740Z,11.30
2023-02-16T12:47:19.784Z,11.50
2023-02-16T12:58:19.240Z,11.50
2023-02-16T13:03:37.218Z,11.50
2023-02-16T13:08:41.048Z,11.60
2023-02-16T13:13:41.909Z,11.50
2023-02-16T13:24:54.249Z,11.40
2023-02-16T13:30:18.112Z,11.80
2023-02-16T13:35:53.178Z,11.90
2023-02-16T13:46:43.666Z,11.90
2023-02-16T13:51:50.115Z,11.70
2023-02-16T13:57:07.871Z,11.60
2023-02-16T14:02:48.047Z,11.50
2023-02-16T14:07:52.821Z,11.60
2023-02-16T14:12:57.282Z,11.30
2023-02-16T14:18:00.962Z,11.20
2023-02-16T14:23:08.607Z,11.10
2023-02-16T14:28:07.116Z,10.90
2023-02-16T14:39:02.604Z,10.60
2023-02-16T14:44:23.569Z,10.50
2023-02-16T14:49:44.565Z,10.50
2023-02-16T14:54:59.807Z,10.40
2023-02-16T15:06:19.078Z,10.30
2023-02-16T15:11:50.761Z,10.20
2023-02-16T15:16:42.731Z,10.20
2023-02-16T15:21:44.397Z,9.90
2023-02-16T15:27:21.449Z,9.60
2023-02-16T15:32:11.180Z,9.20
2023-02-16T15:37:11.245Z,8.80
2023-02-16T15:42:28.942Z,8.50
2023-02-16T15:47:22.195Z,8.40
2023-02-16T15:52:39.263Z,8.20
2023-02-16T15:57:32.280Z,8.10
2023-02-16T16:07:51.101Z,7.70
2023-02-16T16:13:16.840Z,7.50
2023-02-16T16:19:04.125Z,7.30
2023-02-16T16:30:47.356Z,6.70
2023-02-16T16:36:43.482Z,6.60
2023-02-16T16:41:46.544Z,6.50
2023-02-16T16:46:32.824Z,6.40
2023-02-16T16:51:51.436Z,6.60
2023-02-16T16:56:59.434Z,6.80
2023-02-16T17:02:01.960Z,6.80
2023-02-16T17:07:37.078Z,6.60
2023-02-16T17:19:01.553Z,6.80
2023-02-16T17:31:23.704Z,6.90
2023-02-16T17:56:12.419Z,6.90
2023-02-16T18:00:58.480Z,7.00
2023-02-16T18:05:42.359Z,7.10
2023-02-16T18:16:43.592Z,7.20
2023-02-16T18:21:29.026Z,7.10
2023-02-16T18:26:16.669Z,7.10
2023-02-16T18:39:18.632Z,7.10
2023-02-16T19:19:38.445Z,7.20
2023-02-16T19:25:40.331Z,7.30
2023-02-16T19:31:22.331Z,7.30
2023-02-16T19:51:22.300Z,7.50
2023-02-16T20:14:12.762Z,7.60
2023-02-16T20:20:06.280Z,7.60
2023-02-16T20:38:03.185Z,7.60
2023-02-16T21:14:36.347Z,7.70
2023-02-16T21:33:29.477Z,7.80
2023-02-16T22:27:01.364Z,8.20
2023-02-16T22:46:14.180Z,8.20
2023-02-16T23:22:46.384Z,8.00
2023-02-16T23:46:27.497Z,7.90
2023-02-16T23:58:42.470Z,7.80
